createdAt,value
2023-05-18T00:02:16.132Z,1.97
2023-05-18T00:04:44.709Z,1.80
2023-05-18T00:07:17.207Z,1.80
2023-05-18T00:09:45.391Z,2.03
2023-05-18T00:12:13.391Z,2.00
2023-05-18T00:14:41.416Z,2.40
2023-05-18T00:17:09.449Z,2.00
2023-05-18T00:19:37.452Z,1.90
2023-05-18T00:22:07.892Z,1.80
2023-05-18T00:24:37.462Z,2.03
2023-05-18T00:27:05.868Z,2.20
2023-05-18T00:29:34.010Z,1.90
2023-05-18T00:32:02.304Z,1.80
2023-05-18T00:34:31.363Z,1.60
2023-05-18T00:36:59.598Z,1.57
2023-05-18T00:39:27.695Z,2.73
2023-05-18T00:41:57.125Z,1.93
2023-05-18T00:44:26.055Z,1.70
2023-05-18T00:46:56.347Z,1.77
2023-05-18T00:49:24.621Z,1.47
2023-05-18T00:51:53.523Z,1.90
2023-05-18T00:54:21.676Z,1.70
2023-05-18T00:56:49.880Z,1.77
2023-05-18T00:59:19.372Z,2.00
2023-05-18T01:01:48.600Z,1.80
2023-05-18T01:04:16.632Z,1.70
2023-05-18T01:06:46.314Z,1.87
2023-05-18T01:09:16.217Z,1.50
2023-05-18T01:11:55.731Z,1.93
2023-05-18T01:14:30.860Z,2.23
2023-05-18T01:17:10.421Z,1.90
2023-05-18T01:20:09.568Z,1.83
2023-05-18T01:22:51.575Z,2.23
2023-05-18T01:25:32.135Z,1.83
2023-05-18T01:28:06.348Z,1.70
2023-05-18T01:30:35.371Z,1.90
2023-05-18T01:33:09.279Z,2.43
2023-05-18T01:35:37.671Z,1.60
2023-05-18T01:38:06.051Z,2.33
2023-05-18T01:40:38.317Z,2.00
2023-05-18T01:43:12.815Z,1.53
2023-05-18T01:45:45.173Z,1.70
2023-05-18T01:48:23.823Z,1.70
2023-05-18T01:50:55.882Z,1.93
2023-05-18T01:53:26.465Z,1.57
2023-05-18T01:55:56.168Z,2.00
2023-05-18T01:58:26.303Z,1.60
2023-05-18T02:00:54.525Z,1.97
2023-05-18T02:03:23.008Z,2.03
2023-05-18T02:05:51.243Z,2.17
2023-05-18T02:08:19.352Z,1.80
2023-05-18T02:10:48.468Z,2.00
2023-05-18T02:13:16.503Z,1.90
2023-05-18T02:15:46.011Z,1.53
2023-05-18T02:18:14.246Z,1.70
2023-05-18T02:20:42.864Z,1.90
2023-05-18T02:23:11.050Z,2.00
2023-05-18T02:25:39.109Z,1.57
2023-05-18T02:28:07.141Z,1.90
2023-05-18T02:30:35.277Z,1.80
2023-05-18T02:33:04.842Z,1.80
2023-05-18T02:35:32.968Z,1.53
2023-05-18T02:38:01.056Z,1.90
2023-05-18T02:40:29.099Z,1.73
2023-05-18T02:42:57.148Z,2.10
2023-05-18T02:45:26.151Z,1.80
2023-05-18T02:47:55.304Z,1.80
2023-05-18T02:50:24.871Z,1.80
2023-05-18T02:52:52.899Z,2.30
2023-05-18T02:55:20.947Z,1.73
2023-05-18T02:58:08.498Z,2.10
2023-05-18T03:01:03.510Z,1.93
2023-05-18T03:03:38.162Z,1.80
2023-05-18T03:06:08.188Z,1.90
2023-05-18T03:08:37.716Z,2.23
2023-05-18T03:11:06.049Z,1.90
2023-05-18T03:13:34.079Z,1.80
2023-05-18T03:16:02.060Z,1.93
2023-05-18T03:18:30.159Z,2.07
2023-05-18T03:21:01.895Z,1.70
2023-05-18T03:23:32.373Z,2.00
2023-05-18T03:26:02.666Z,1.60
2023-05-18T03:28:31.789Z,1.77
2023-05-18T03:31:00.406Z,1.67
2023-05-18T03:33:28.592Z,1.90
2023-05-18T03:35:56.641Z,2.10
2023-05-18T03:38:25.153Z,1.97
2023-05-18T03:41:03.397Z,2.00
2023-05-18T03:43:32.502Z,1.70
2023-05-18T03:46:02.067Z,2.07
2023-05-18T03:48:30.736Z,2.10
2023-05-18T03:50:58.874Z,2.00
2023-05-18T03:53:30.107Z,2.50
2023-05-18T03:55:58.212Z,2.00
2023-05-18T03:58:27.629Z,1.97
2023-05-18T04:00:56.273Z,2.00
2023-05-18T04:03:26.845Z,2.33
2023-05-18T04:05:55.775Z,1.80
2023-05-18T04:08:25.430Z,2.30
2023-05-18T04:10:53.828Z,1.87
2023-05-18T04:13:21.832Z,1.60
2023-05-18T04:15:51.702Z,2.03
2023-05-18T04:18:19.732Z,2.00
2023-05-18T04:20:47.825Z,2.30
2023-05-18T04:23:15.868Z,1.73
2023-05-18T04:25:44.074Z,2.10
2023-05-18T04:28:12.119Z,1.90
2023-05-18T04:30:41.553Z,1.70
2023-05-18T04:33:11.055Z,2.30
2023-05-18T04:35:39.228Z,1.90
2023-05-18T04:38:07.279Z,2.30
2023-05-18T04:40:38.105Z,1.90
2023-05-18T04:43:06.907Z,1.83
2023-05-18T04:45:35.659Z,2.27
2023-05-18T04:48:03.753Z,2.30
2023-05-18T04:50:33.193Z,1.77
2023-05-18T04:53:02.392Z,1.80
2023-05-18T04:55:31.503Z,2.17
2023-05-18T04:58:04.985Z,2.27
2023-05-18T05:00:33.152Z,1.83
2023-05-18T05:03:01.241Z,1.97
2023-05-18T05:05:32.655Z,1.70
2023-05-18T05:08:00.865Z,1.90
2023-05-18T05:10:29.082Z,1.87
2023-05-18T05:12:57.121Z,2.00
2023-05-18T05:15:25.789Z,2.07
2023-05-18T05:17:55.140Z,2.20
2023-05-18T05:20:23.496Z,2.07
2023-05-18T05:22:53.004Z,2.30
2023-05-18T05:25:25.058Z,2.30
2023-05-18T05:27:53.323Z,2.23
2023-05-18T05:30:22.791Z,1.90
2023-05-18T05:32:50.831Z,1.80
2023-05-18T05:35:19.250Z,2.27
2023-05-18T05:37:48.495Z,2.10
2023-05-18T05:40:18.831Z,2.30
2023-05-18T05:42:47.745Z,2.23
2023-05-18T05:45:15.801Z,1.97
2023-05-18T05:47:54.312Z,2.00
2023-05-18T05:50:23.918Z,2.20
2023-05-18T05:52:54.398Z,2.37
2023-05-18T05:55:25.874Z,1.90
2023-05-18T05:57:54.386Z,2.23
2023-05-18T06:00:24.320Z,2.40
2023-05-18T06:03:00.271Z,1.93
2023-05-18T06:05:47.700Z,1.73
2023-05-18T06:08:17.227Z,2.03
2023-05-18T06:10:47.227Z,2.00
2023-05-18T06:13:15.299Z,1.80
2023-05-18T06:15:51.774Z,2.20
2023-05-18T06:18:19.808Z,2.30
2023-05-18T06:20:52.165Z,2.20
2023-05-18T06:23:23.559Z,1.90
2023-05-18T06:26:04.638Z,2.27
2023-05-18T06:28:32.616Z,2.00
2023-05-18T06:31:08.322Z,2.40
2023-05-18T06:33:44.715Z,1.90
2023-05-18T06:36:13.464Z,2.00
2023-05-18T06:38:41.449Z,1.90
2023-05-18T06:41:10.885Z,2.03
2023-05-18T06:43:38.873Z,1.97
2023-05-18T06:46:22.624Z,1.87
2023-05-18T06:49:01.241Z,2.33
2023-05-18T06:51:29.473Z,2.30
2023-05-18T06:53:58.394Z,2.27
2023-05-18T06:56:28.567Z,2.10
2023-05-18T06:58:57.785Z,1.90
2023-05-18T07:01:27.740Z,2.20
2023-05-18T07:03:59.063Z,2.30
2023-05-18T07:06:27.262Z,2.10
2023-05-18T07:08:56.233Z,2.27
2023-05-18T07:11:24.240Z,2.10
2023-05-18T07:13:53.557Z,2.20
2023-05-18T07:16:21.587Z,2.00
2023-05-18T07:18:52.490Z,2.27
2023-05-18T07:21:20.631Z,2.37
2023-05-18T07:23:48.625Z,2.13
2023-05-18T07:26:16.643Z,1.80
2023-05-18T07:28:44.746Z,2.23
2023-05-18T07:31:16.214Z,2.40
2023-05-18T07:33:45.614Z,2.33
2023-05-18T07:36:13.675Z,2.70
2023-05-18T07:38:41.652Z,2.43
2023-05-18T07:41:10.195Z,2.40
2023-05-18T07:43:38.182Z,2.07
2023-05-18T07:46:06.219Z,1.93
2023-05-18T07:48:36.719Z,2.63
2023-05-18T07:51:05.835Z,2.33
2023-05-18T07:53:34.803Z,2.37
2023-05-18T07:56:04.111Z,2.60
2023-05-18T07:58:32.127Z,2.20
2023-05-18T08:01:00.078Z,2.17
2023-05-18T08:03:28.189Z,2.73
2023-05-18T08:05:57.571Z,2.37
2023-05-18T08:08:25.586Z,2.63
2023-05-18T08:10:53.627Z,2.80
2023-05-18T08:13:21.645Z,2.83
2023-05-18T08:15:59.229Z,3.13
2023-05-18T08:18:31.492Z,2.63
2023-05-18T08:21:04.059Z,2.73
2023-05-18T08:23:32.163Z,2.53
2023-05-18T08:26:00.307Z,2.90
2023-05-18T08:28:28.329Z,3.90
2023-05-18T08:30:56.408Z,2.50
2023-05-18T08:33:24.742Z,2.40
2023-05-18T08:35:52.790Z,2.10
2023-05-18T08:38:22.267Z,2.20
2023-05-18T08:40:57.076Z,2.67
2023-05-18T08:43:33.088Z,2.30
2023-05-18T08:46:07.197Z,2.70
2023-05-18T08:48:36.557Z,2.80
2023-05-18T08:51:07.527Z,2.80
2023-05-18T08:53:39.080Z,2.67
2023-05-18T08:56:07.611Z,3.07
2023-05-18T08:58:37.801Z,2.60
2023-05-18T09:01:06.310Z,2.90
2023-05-18T09:03:35.052Z,3.07
2023-05-18T09:06:04.538Z,2.70
2023-05-18T09:08:33.135Z,2.90
2023-05-18T09:11:05.000Z,3.13
2023-05-18T09:13:33.159Z,3.00
2023-05-18T09:16:01.271Z,2.67
2023-05-18T09:18:29.264Z,2.90
2023-05-18T09:20:57.397Z,2.73
2023-05-18T09:23:25.418Z,2.90
2023-05-18T09:25:54.005Z,2.80
2023-05-18T09:28:33.825Z,2.53
2023-05-18T09:31:01.917Z,2.73
2023-05-18T09:33:35.274Z,2.87
2023-05-18T09:36:05.190Z,2.80
2023-05-18T09:38:38.196Z,3.30
2023-05-18T09:41:11.210Z,3.00
2023-05-18T09:43:40.710Z,3.20
2023-05-18T09:46:09.800Z,3.33
2023-05-18T09:48:38.864Z,2.50
2023-05-18T09:51:07.701Z,2.40
2023-05-18T09:53:37.354Z,2.60
2023-05-18T09:56:07.158Z,2.60
2023-05-18T09:58:36.418Z,2.83
2023-05-18T10:01:06.334Z,2.60
2023-05-18T10:03:37.619Z,2.50
2023-05-18T10:06:07.830Z,2.50
2023-05-18T10:08:36.688Z,2.43
2023-05-18T10:11:05.580Z,2.27
2023-05-18T10:13:34.594Z,2.03
2023-05-18T10:16:05.643Z,2.60
2023-05-18T10:18:35.813Z,2.30
2023-05-18T10:21:05.801Z,2.17
2023-05-18T10:23:36.216Z,2.60
2023-05-18T10:26:07.855Z,2.67
2023-05-18T10:28:39.894Z,3.13
2023-05-18T10:31:09.807Z,4.00
2023-05-18T10:33:39.057Z,3.10
2023-05-18T10:36:08.459Z,2.57
2023-05-18T10:38:39.664Z,2.63
2023-05-18T10:41:08.709Z,3.00
2023-05-18T10:43:37.879Z,2.20
2023-05-18T10:46:08.206Z,2.37
2023-05-18T10:48:41.084Z,2.57
2023-05-18T10:51:09.892Z,2.73
2023-05-18T10:53:39.017Z,2.30
2023-05-18T10:56:07.819Z,3.10
2023-05-18T10:58:38.460Z,2.87
2023-05-18T11:01:10.675Z,3.03
2023-05-18T11:03:42.035Z,2.80
2023-05-18T11:06:14.941Z,2.93
2023-05-18T11:08:49.719Z,2.57
2023-05-18T11:11:19.782Z,2.77
2023-05-18T11:13:50.576Z,2.80
2023-05-18T11:16:19.505Z,2.73
2023-05-18T11:18:50.289Z,3.10
2023-05-18T11:21:52.620Z,2.73
2023-05-18T11:24:23.685Z,2.70
2023-05-18T11:26:53.251Z,2.77
2023-05-18T11:29:23.972Z,2.90
2023-05-18T11:31:54.332Z,2.60
2023-05-18T11:34:54.833Z,3.53
2023-05-18T11:37:50.331Z,2.70
2023-05-18T11:40:46.824Z,3.00
2023-05-18T11:43:21.918Z,3.20
2023-05-18T11:45:54.217Z,2.80
2023-05-18T11:48:24.226Z,3.40
2023-05-18T11:50:56.133Z,2.93
2023-05-18T11:53:25.607Z,3.30
2023-05-18T11:55:54.632Z,2.70
2023-05-18T11:58:25.071Z,3.17
2023-05-18T12:00:53.904Z,3.60
2023-05-18T12:03:24.863Z,3.40
2023-05-18T12:05:53.236Z,3.10
2023-05-18T12:08:29.215Z,3.10
2023-05-18T12:10:57.802Z,3.30
2023-05-18T12:13:25.951Z,3.23
2023-05-18T12:15:58.129Z,3.43
2023-05-18T12:18:29.543Z,3.80
2023-05-18T12:20:57.529Z,3.70
2023-05-18T12:23:38.140Z,3.80
2023-05-18T12:26:06.307Z,3.17
2023-05-18T12:28:34.277Z,3.73
2023-05-18T12:31:07.210Z,3.90
2023-05-18T12:33:35.751Z,4.13
2023-05-18T12:36:03.796Z,4.27
2023-05-18T12:38:32.751Z,3.97
2023-05-18T12:41:02.174Z,3.67
2023-05-18T12:43:35.229Z,3.57
2023-05-18T12:46:04.294Z,3.70
2023-05-18T12:48:37.277Z,4.20
2023-05-18T12:51:07.405Z,3.47
2023-05-18T12:53:42.672Z,3.60
2023-05-18T12:56:12.768Z,4.10
2023-05-18T12:58:41.606Z,3.67
2023-05-18T13:01:10.676Z,3.63
2023-05-18T13:03:41.839Z,3.37
2023-05-18T13:06:10.657Z,3.17
2023-05-18T13:08:39.418Z,3.17
2023-05-18T13:13:57.923Z,3.20
2023-05-18T13:16:26.106Z,3.47
2023-05-18T13:18:57.716Z,3.27
2023-05-18T13:21:25.738Z,3.30
2023-05-18T13:23:54.121Z,3.80
2023-05-18T13:26:22.814Z,3.53
2023-05-18T13:28:53.996Z,3.27
2023-05-18T13:31:22.238Z,2.77
2023-05-18T13:33:50.558Z,3.00
2023-05-18T13:36:19.561Z,2.73
2023-05-18T13:38:47.600Z,3.53
2023-05-18T13:41:15.876Z,3.27
2023-05-18T13:43:44.129Z,3.30
2023-05-18T13:46:14.478Z,3.40
2023-05-18T13:48:42.505Z,3.10
2023-05-18T13:51:10.568Z,3.03
2023-05-18T13:53:40.216Z,2.80
2023-05-18T13:56:09.057Z,3.63
2023-05-18T13:58:37.075Z,3.00
2023-05-18T14:01:07.960Z,3.70
2023-05-18T14:03:37.709Z,2.83
2023-05-18T14:06:06.066Z,2.80
2023-05-18T14:08:34.110Z,2.73
2023-05-18T14:11:02.134Z,2.80
2023-05-18T14:13:31.876Z,2.60
2023-05-18T14:15:59.960Z,3.03
2023-05-18T14:18:28.088Z,3.17
2023-05-18T14:21:02.238Z,2.97
2023-05-18T14:23:30.868Z,2.70
2023-05-18T14:25:59.024Z,3.37
2023-05-18T14:28:27.074Z,3.70
2023-05-18T14:30:55.117Z,3.17
2023-05-18T14:33:23.119Z,2.80
2023-05-18T14:35:51.321Z,2.70
2023-05-18T14:38:20.647Z,3.23
2023-05-18T14:40:48.625Z,2.93
2023-05-18T14:43:16.612Z,2.73
2023-05-18T14:45:48.415Z,3.17
2023-05-18T14:48:21.539Z,2.77
2023-05-18T14:50:49.537Z,3.17
2023-05-18T14:53:17.518Z,2.90
2023-05-18T14:55:46.925Z,3.07
2023-05-18T14:58:15.009Z,3.20
2023-05-18T15:00:43.085Z,2.93
2023-05-18T15:03:11.306Z,3.00
2023-05-18T15:05:39.402Z,3.03
2023-05-18T15:08:07.436Z,2.87
2023-05-18T15:10:35.476Z,2.57
2023-05-18T15:13:04.811Z,2.90
2023-05-18T15:15:33.180Z,2.80
2023-05-18T15:18:01.224Z,2.87
2023-05-18T15:20:30.086Z,2.83
2023-05-18T15:22:58.235Z,2.40
2023-05-18T15:25:26.224Z,2.67
2023-05-18T15:27:54.255Z,2.63
2023-05-18T15:30:23.804Z,2.63
2023-05-18T15:32:51.848Z,2.67
2023-05-18T15:35:20.029Z,2.90
2023-05-18T15:37:48.000Z,2.70
2023-05-18T15:40:17.327Z,2.80
2023-05-18T15:45:35.862Z,2.33
2023-05-18T15:48:04.001Z,2.67
2023-05-18T15:50:32.172Z,2.30
2023-05-18T15:53:00.251Z,2.57
2023-05-18T15:55:28.228Z,2.70
2023-05-18T15:57:56.817Z,2.30
2023-05-18T16:00:26.253Z,2.30
2023-05-18T16:02:55.656Z,2.60
2023-05-18T16:05:23.734Z,2.43
2023-05-18T16:07:51.721Z,2.10
2023-05-18T16:10:19.732Z,2.60
2023-05-18T16:12:47.742Z,2.10
2023-05-18T16:15:15.764Z,2.43
2023-05-18T16:17:43.786Z,2.17
2023-05-18T16:20:14.113Z,2.40
2023-05-18T16:22:42.174Z,2.50
2023-05-18T16:25:10.833Z,2.30
2023-05-18T16:27:38.844Z,2.20
2023-05-18T16:30:08.201Z,2.13
2023-05-18T16:32:36.319Z,2.27
2023-05-18T16:35:04.723Z,2.60
2023-05-18T16:37:34.062Z,2.20
2023-05-18T16:40:02.157Z,2.20
2023-05-18T16:42:30.138Z,5.23
2023-05-18T16:44:58.102Z,2.73
2023-05-18T16:47:27.579Z,2.37
2023-05-18T16:49:55.906Z,2.00
2023-05-18T16:52:23.940Z,2.30
2023-05-18T16:54:53.299Z,4.87
2023-05-18T16:57:21.972Z,3.00
2023-05-18T16:59:50.332Z,2.13
2023-05-18T17:02:18.595Z,2.17
2023-05-18T17:04:49.418Z,2.30
2023-05-18T17:07:17.621Z,2.80
2023-05-18T17:09:45.744Z,2.83
2023-05-18T17:12:15.064Z,2.60
2023-05-18T17:14:43.033Z,2.47
2023-05-18T17:17:11.261Z,2.77
2023-05-18T17:19:40.264Z,2.10
2023-05-18T17:22:09.489Z,2.40
2023-05-18T17:24:37.738Z,2.50
2023-05-18T17:27:06.393Z,2.30
2023-05-18T17:29:35.731Z,3.83
2023-05-18T17:32:04.775Z,3.53
2023-05-18T17:34:32.867Z,13.33
2023-05-18T17:37:00.909Z,7.87
2023-05-18T17:39:28.866Z,3.80
2023-05-18T17:41:57.587Z,3.80
2023-05-18T17:44:25.514Z,2.60
2023-05-18T17:46:54.907Z,2.80
2023-05-18T17:49:22.931Z,2.33
2023-05-18T17:51:51.527Z,2.90
2023-05-18T17:54:19.607Z,2.53
2023-05-18T17:56:47.647Z,2.00
2023-05-18T17:59:15.788Z,2.40
2023-05-18T18:01:43.978Z,2.90
2023-05-18T18:04:13.508Z,2.53
2023-05-18T18:06:42.717Z,2.67
2023-05-18T18:09:10.787Z,2.40
2023-05-18T18:11:38.840Z,2.50
2023-05-18T18:14:07.076Z,2.57
2023-05-18T18:16:35.291Z,2.40
2023-05-18T18:19:03.989Z,2.20
2023-05-18T18:21:33.451Z,2.30
2023-05-18T18:24:02.688Z,2.40
2023-05-18T18:26:30.809Z,2.53
2023-05-18T18:28:58.892Z,2.50
2023-05-18T18:31:27.113Z,2.10
2023-05-18T18:33:55.153Z,1.90
2023-05-18T18:36:24.961Z,2.33
2023-05-18T18:38:55.732Z,2.63
2023-05-18T18:41:23.832Z,2.17
2023-05-18T18:43:53.969Z,2.70
2023-05-18T18:46:22.640Z,2.20
2023-05-18T18:48:50.702Z,2.20
2023-05-18T18:51:18.744Z,2.13
2023-05-18T18:53:47.038Z,2.13
2023-05-18T18:56:16.429Z,2.33
2023-05-18T18:58:44.437Z,1.93
2023-05-18T19:01:12.569Z,2.60
2023-05-18T19:03:40.531Z,3.10
2023-05-18T19:06:08.512Z,3.90
2023-05-18T19:08:36.553Z,2.47
2023-05-18T19:11:04.616Z,2.57
2023-05-18T19:13:33.976Z,2.60
2023-05-18T19:16:02.022Z,2.43
2023-05-18T19:18:30.062Z,2.33
2023-05-18T19:21:01.121Z,2.80
2023-05-18T19:23:29.144Z,2.67
2023-05-18T19:25:59.704Z,2.00
2023-05-18T19:28:27.751Z,2.23
2023-05-18T19:30:57.105Z,2.63
2023-05-18T19:33:25.179Z,2.23
2023-05-18T19:35:54.422Z,2.57
2023-05-18T19:38:22.437Z,2.83
2023-05-18T19:40:50.461Z,2.60
2023-05-18T19:43:18.620Z,2.80
2023-05-18T19:45:47.395Z,2.83
2023-05-18T19:48:17.444Z,2.67
2023-05-18T19:50:45.514Z,2.77
2023-05-18T19:53:13.678Z,2.80
2023-05-18T19:55:41.906Z,2.70
2023-05-18T19:58:10.727Z,2.37
2023-05-18T20:00:41.224Z,2.43
2023-05-18T20:03:09.692Z,2.53
2023-05-18T20:05:39.161Z,2.70
2023-05-18T20:08:08.289Z,2.83
2023-05-18T20:10:36.338Z,2.40
2023-05-18T20:13:04.412Z,2.70
2023-05-18T20:15:36.692Z,2.37
2023-05-18T20:18:06.951Z,2.23
2023-05-18T20:20:36.113Z,2.80
2023-05-18T20:23:06.792Z,2.60
2023-05-18T20:25:36.359Z,2.50
2023-05-18T20:28:07.254Z,2.90
2023-05-18T20:30:35.384Z,2.50
2023-05-18T20:33:04.773Z,2.77
2023-05-18T20:35:33.621Z,2.70
2023-05-18T20:38:04.827Z,2.50
2023-05-18T20:40:37.800Z,2.33
2023-05-18T20:43:09.856Z,2.83
2023-05-18T20:45:38.015Z,3.20
2023-05-18T20:48:07.677Z,2.30
2023-05-18T20:50:35.754Z,2.70
2023-05-18T20:53:03.752Z,2.50
2023-05-18T20:55:33.968Z,2.60
2023-05-18T20:58:02.769Z,2.20
2023-05-18T21:00:31.100Z,2.33
2023-05-18T21:02:59.663Z,2.80
2023-05-18T21:05:27.858Z,2.73
2023-05-18T21:07:56.647Z,2.47
2023-05-18T21:10:24.973Z,2.70
2023-05-18T21:12:54.375Z,2.70
2023-05-18T21:15:22.415Z,2.57
2023-05-18T21:17:50.523Z,2.50
2023-05-18T21:20:18.769Z,2.70
2023-05-18T21:22:47.214Z,2.60
2023-05-18T21:25:17.719Z,2.93
2023-05-18T21:27:45.779Z,2.33
2023-05-18T21:30:16.554Z,2.60
2023-05-18T21:32:44.663Z,2.20
2023-05-18T21:35:12.764Z,2.40
2023-05-18T21:37:41.027Z,2.70
2023-05-18T21:40:10.107Z,2.33
2023-05-18T21:42:44.753Z,2.67
2023-05-18T21:45:13.431Z,2.97
2023-05-18T21:47:42.985Z,2.83
2023-05-18T21:50:11.648Z,2.50
2023-05-18T21:52:39.616Z,2.47
2023-05-18T21:55:08.852Z,3.00
2023-05-18T21:57:36.870Z,2.53
2023-05-18T22:00:06.812Z,2.13
2023-05-18T22:02:42.027Z,2.60
2023-05-18T22:05:10.825Z,2.50
2023-05-18T22:07:38.979Z,2.50
2023-05-18T22:10:07.871Z,2.67
2023-05-18T22:12:37.456Z,2.60
2023-05-18T22:15:06.136Z,2.93
2023-05-18T22:17:34.206Z,2.50
2023-05-18T22:20:04.253Z,2.80
2023-05-18T22:22:32.273Z,3.00
2023-05-18T22:25:00.213Z,3.10
2023-05-18T22:27:28.207Z,2.90
2023-05-18T22:29:57.190Z,2.73
2023-05-18T22:32:25.441Z,2.93
2023-05-18T22:34:53.971Z,2.90
2023-05-18T22:37:23.809Z,3.40
2023-05-18T22:39:51.779Z,3.60
2023-05-18T22:42:19.826Z,3.60
2023-05-18T22:44:47.796Z,4.03
2023-05-18T22:47:19.579Z,3.50
2023-05-18T22:49:48.033Z,3.77
2023-05-18T22:52:17.803Z,3.37
2023-05-18T22:54:47.550Z,3.10
2023-05-18T22:57:15.552Z,3.27
2023-05-18T22:59:43.560Z,3.47
2023-05-18T23:02:12.128Z,3.97
2023-05-18T23:04:40.258Z,3.43
2023-05-18T23:07:08.736Z,3.60
2023-05-18T23:09:39.724Z,3.47
2023-05-18T23:12:11.578Z,3.60
2023-05-18T23:14:39.602Z,3.30
2023-05-18T23:17:08.551Z,3.37
2023-05-18T23:19:36.564Z,3.70
2023-05-18T23:22:05.578Z,3.77
2023-05-18T23:24:33.903Z,3.40
2023-05-18T23:27:01.902Z,3.80
2023-05-18T23:29:31.250Z,3.63
2023-05-18T23:31:59.280Z,3.50
2023-05-18T23:34:28.667Z,3.50
2023-05-18T23:37:02.730Z,3.60
2023-05-18T23:39:31.116Z,3.77
2023-05-18T23:42:00.356Z,3.50
2023-05-18T23:44:29.562Z,3.57
2023-05-18T23:46:59.970Z,4.03
2023-05-18T23:49:28.508Z,3.63
2023-05-18T23:52:01.515Z,3.70
2023-05-18T23:54:30.384Z,4.10
2023-05-18T23:56:59.706Z,3.70
2023-05-18T23:59:28.506Z,3.50
